sensor_id;sensor_type;location;lat;lon;timestamp;P1;durP1;ratioP1;P2;durP2;ratioP2
33162;SDS011;29282;45.656;11.302;2023-03-01T00:01:27;6.70;;;4.80;;
33162;SDS011;29282;45.656;11.302;2023-03-01T00:03:54;5.40;;;4.40;;
33162;SDS011;29282;45.656;11.302;2023-03-01T00:06:21;10.65;;;4.85;;
33162;SDS011;29282;45.656;11.302;2023-03-01T00:08:47;5.78;;;4.60;;
33162;SDS011;29282;45.656;11.302;2023-03-01T00:11:20;5.53;;;4.53;;
33162;SDS011;29282;45.656;11.302;2023-03-01T00:13:51;5.80;;;4.72;;
33162;SDS011;29282;45.656;11.302;2023-03-01T00:16:20;5.90;;;4.53;;
33162;SDS011;29282;45.656;11.302;2023-03-01T00:18:49;5.60;;;4.43;;
33162;SDS011;29282;45.656;11.302;2023-03-01T00:21:15;5.32;;;4.60;;
33162;SDS011;29282;45.656;11.302;2023-03-01T00:23:41;6.95;;;4.93;;
33162;SDS011;29282;45.656;11.302;2023-03-01T00:26:09;6.90;;;4.57;;
33162;SDS011;29282;45.656;11.302;2023-03-01T00:28:37;6.95;;;4.40;;
33162;SDS011;29282;45.656;11.302;2023-03-01T00:31:13;5.97;;;4.70;;
33162;SDS011;29282;45.656;11.302;2023-03-01T00:33:41;6.80;;;4.60;;
33162;SDS011;29282;45.656;11.302;2023-03-01T00:36:07;5.85;;;4.50;;
33162;SDS011;29282;45.656;11.302;2023-03-01T00:38:35;6.50;;;4.35;;
33162;SDS011;29282;45.656;11.302;2023-03-01T00:41:09;7.85;;;4.60;;
33162;SDS011;29282;45.656;11.302;2023-03-01T00:43:36;6.22;;;5.30;;
33162;SDS011;29282;45.656;11.302;2023-03-01T00:46:03;5.88;;;4.75;;
33162;SDS011;29282;45.656;11.302;2023-03-01T00:48:35;7.68;;;4.28;;
33162;SDS011;29282;45.656;11.302;2023-03-01T00:51:07;5.40;;;4.22;;
33162;SDS011;29282;45.656;11.302;2023-03-01T00:53:35;6.82;;;4.78;;
33162;SDS011;29282;45.656;11.302;2023-03-01T00:56:01;4.60;;;4.07;;
33162;SDS011;29282;45.656;11.302;2023-03-01T00:58:27;6.07;;;4.78;;
33162;SDS011;29282;45.656;11.302;2023-03-01T01:00:52;7.57;;;4.57;;
33162;SDS011;29282;45.656;11.302;2023-03-01T01:03:18;5.47;;;4.50;;
33162;SDS011;29282;45.656;11.302;2023-03-01T01:05:44;7.03;;;5.00;;
33162;SDS011;29282;45.656;11.302;2023-03-01T01:08:10;5.68;;;4.72;;
33162;SDS011;29282;45.656;11.302;2023-03-01T01:10:36;7.47;;;4.80;;
33162;SDS011;29282;45.656;11.302;2023-03-01T01:13:01;5.55;;;4.47;;
33162;SDS011;29282;45.656;11.302;2023-03-01T01:15:27;5.22;;;4.50;;
33162;SDS011;29282;45.656;11.302;2023-03-01T01:17:52;7.90;;;4.70;;
33162;SDS011;29282;45.656;11.302;2023-03-01T01:20:18;7.22;;;4.63;;
33162;SDS011;29282;45.656;11.302;2023-03-01T01:22:44;6.18;;;4.63;;
33162;SDS011;29282;45.656;11.302;2023-03-01T01:25:09;5.20;;;4.40;;
33162;SDS011;29282;45.656;11.302;2023-03-01T01:27:35;5.30;;;4.53;;
33162;SDS011;29282;45.656;11.302;2023-03-01T01:30:01;5.10;;;4.45;;
33162;SDS011;29282;45.656;11.302;2023-03-01T01:32:26;4.78;;;4.28;;
33162;SDS011;29282;45.656;11.302;2023-03-01T01:34:52;5.50;;;4.40;;
33162;SDS011;29282;45.656;11.302;2023-03-01T01:37:17;5.13;;;4.28;;
33162;SDS011;29282;45.656;11.302;2023-03-01T01:39:43;6.57;;;4.93;;
33162;SDS011;29282;45.656;11.302;2023-03-01T01:42:15;5.75;;;4.57;;
33162;SDS011;29282;45.656;11.302;2023-03-01T01:44:42;5.90;;;5.05;;
33162;SDS011;29282;45.656;11.302;2023-03-01T01:47:28;5.75;;;4.75;;
33162;SDS011;29282;45.656;11.302;2023-03-01T01:49:54;4.15;;;3.75;;
33162;SDS011;29282;45.656;11.302;2023-03-01T01:54:57;5.57;;;4.60;;
33162;SDS011;29282;45.656;11.302;2023-03-01T01:57:40;6.35;;;4.78;;
33162;SDS011;29282;45.656;11.302;2023-03-01T02:00:15;6.97;;;4.20;;
33162;SDS011;29282;45.656;11.302;2023-03-01T02:02:46;5.20;;;4.68;;
33162;SDS011;29282;45.656;11.302;2023-03-01T02:05:19;5.15;;;4.30;;
33162;SDS011;29282;45.656;11.302;2023-03-01T02:07:50;5.68;;;4.80;;
33162;SDS011;29282;45.656;11.302;2023-03-01T02:10:17;5.88;;;4.60;;
33162;SDS011;29282;45.656;11.302;2023-03-01T02:12:43;6.55;;;4.57;;
33162;SDS011;29282;45.656;11.302;2023-03-01T02:15:09;5.80;;;4.50;;
33162;SDS011;29282;45.656;11.302;2023-03-01T02:17:35;5.50;;;4.68;;
33162;SDS011;29282;45.656;11.302;2023-03-01T02:22:58;5.20;;;4.28;;
33162;SDS011;29282;45.656;11.302;2023-03-01T02:30:43;6.03;;;4.38;;
33162;SDS011;29282;45.656;11.302;2023-03-01T02:33:31;6.55;;;4.68;;
33162;SDS011;29282;45.656;11.302;2023-03-01T02:35:58;4.55;;;4.15;;
33162;SDS011;29282;45.656;11.302;2023-03-01T02:38:27;4.95;;;4.22;;
33162;SDS011;29282;45.656;11.302;2023-03-01T02:40:53;4.45;;;3.90;;
33162;SDS011;29282;45.656;11.302;2023-03-01T02:43:22;5.78;;;4.13;;
33162;SDS011;29282;45.656;11.302;2023-03-01T02:45:59;5.15;;;4.10;;
33162;SDS011;29282;45.656;11.302;2023-03-01T02:48:38;5.22;;;4.30;;
33162;SDS011;29282;45.656;11.302;2023-03-01T02:56:28;4.90;;;4.18;;
33162;SDS011;29282;45.656;11.302;2023-03-01T02:58:54;5.35;;;4.13;;
33162;SDS011;29282;45.656;11.302;2023-03-01T03:01:25;4.90;;;4.40;;
33162;SDS011;29282;45.656;11.302;2023-03-01T03:04:02;6.05;;;4.25;;
33162;SDS011;29282;45.656;11.302;2023-03-01T03:06:32;4.35;;;3.95;;
33162;SDS011;29282;45.656;11.302;2023-03-01T03:08:58;6.13;;;4.88;;
33162;SDS011;29282;45.656;11.302;2023-03-01T03:11:24;4.55;;;3.90;;
33162;SDS011;29282;45.656;11.302;2023-03-01T03:13:49;4.03;;;3.50;;
33162;SDS011;29282;45.656;11.302;2023-03-01T03:16:17;5.38;;;4.50;;
33162;SDS011;29282;45.656;11.302;2023-03-01T03:18:43;6.35;;;3.95;;
33162;SDS011;29282;45.656;11.302;2023-03-01T03:21:09;5.38;;;4.40;;
33162;SDS011;29282;45.656;11.302;2023-03-01T03:23:36;6.32;;;4.53;;
33162;SDS011;29282;45.656;11.302;2023-03-01T03:26:02;4.80;;;4.10;;
33162;SDS011;29282;45.656;11.302;2023-03-01T03:28:31;5.00;;;4.50;;
33162;SDS011;29282;45.656;11.302;2023-03-01T03:30:58;4.55;;;4.07;;
33162;SDS011;29282;45.656;11.302;2023-03-01T03:33:28;4.82;;;4.10;;
33162;SDS011;29282;45.656;11.302;2023-03-01T03:35:55;4.32;;;3.92;;
33162;SDS011;29282;45.656;11.302;2023-03-01T03:38:20;4.97;;;4.20;;
33162;SDS011;29282;45.656;11.302;2023-03-01T03:40:59;5.03;;;4.03;;
33162;SDS011;29282;45.656;11.302;2023-03-01T03:43:30;5.32;;;4.40;;
33162;SDS011;29282;45.656;11.302;2023-03-01T03:45:57;5.55;;;3.85;;
33162;SDS011;29282;45.656;11.302;2023-03-01T03:48:23;6.65;;;4.60;;
33162;SDS011;29282;45.656;11.302;2023-03-01T03:50:50;4.55;;;4.03;;
33162;SDS011;29282;45.656;11.302;2023-03-01T03:53:21;4.38;;;3.97;;
33162;SDS011;29282;45.656;11.302;2023-03-01T03:55:48;4.07;;;3.67;;
33162;SDS011;29282;45.656;11.302;2023-03-01T03:58:14;5.25;;;4.30;;
33162;SDS011;29282;45.656;11.302;2023-03-01T04:00:43;5.63;;;4.15;;
33162;SDS011;29282;45.656;11.302;2023-03-01T04:03:10;5.97;;;4.57;;
33162;SDS011;29282;45.656;11.302;2023-03-01T04:05:38;6.07;;;4.43;;
33162;SDS011;29282;45.656;11.302;2023-03-01T04:08:05;4.47;;;4.07;;
33162;SDS011;29282;45.656;11.302;2023-03-01T04:10:35;5.65;;;4.13;;
33162;SDS011;29282;45.656;11.302;2023-03-01T04:13:03;4.78;;;4.28;;
33162;SDS011;29282;45.656;11.302;2023-03-01T04:15:30;4.35;;;3.58;;
33162;SDS011;29282;45.656;11.302;2023-03-01T04:17:55;5.00;;;4.10;;
33162;SDS011;29282;45.656;11.302;2023-03-01T04:20:23;4.47;;;3.75;;
33162;SDS011;29282;45.656;11.302;2023-03-01T04:22:51;4.60;;;4.10;;
33162;SDS011;29282;45.656;11.302;2023-03-01T04:25:18;5.30;;;4.03;;
33162;SDS011;29282;45.656;11.302;2023-03-01T04:27:43;5.13;;;3.75;;
33162;SDS011;29282;45.656;11.302;2023-03-01T04:30:09;4.50;;;4.00;;
33162;SDS011;29282;45.656;11.302;2023-03-01T04:32:35;5.80;;;4.00;;
33162;SDS011;29282;45.656;11.302;2023-03-01T04:35:01;5.05;;;4.22;;
33162;SDS011;29282;45.656;11.302;2023-03-01T04:37:26;4.57;;;4.03;;
33162;SDS011;29282;45.656;11.302;2023-03-01T04:39:52;4.88;;;4.38;;
33162;SDS011;29282;45.656;11.302;2023-03-01T04:42:18;5.50;;;4.20;;
33162;SDS011;29282;45.656;11.302;2023-03-01T04:44:44;4.55;;;4.03;;
33162;SDS011;29282;45.656;11.302;2023-03-01T04:47:10;4.88;;;3.97;;
33162;SDS011;29282;45.656;11.302;2023-03-01T04:49:36;6.47;;;4.10;;
33162;SDS011;29282;45.656;11.302;2023-03-01T04:52:02;5.40;;;4.25;;
33162;SDS011;29282;45.656;11.302;2023-03-01T04:54:28;4.68;;;4.05;;
33162;SDS011;29282;45.656;11.302;2023-03-01T04:56:54;10.45;;;4.30;;
33162;SDS011;29282;45.656;11.302;2023-03-01T04:59:20;6.38;;;4.00;;
33162;SDS011;29282;45.656;11.302;2023-03-01T05:01:51;6.38;;;4.40;;
33162;SDS011;29282;45.656;11.302;2023-03-01T05:04:20;4.63;;;4.00;;
33162;SDS011;29282;45.656;11.302;2023-03-01T05:06:46;9.68;;;4.50;;
33162;SDS011;29282;45.656;11.302;2023-03-01T05:09:12;10.40;;;4.28;;
33162;SDS011;29282;45.656;11.302;2023-03-01T05:11:38;6.10;;;4.00;;
33162;SDS011;29282;45.656;11.302;2023-03-01T05:14:04;7.00;;;4.97;;
33162;SDS011;29282;45.656;11.302;2023-03-01T05:16:31;5.85;;;4.45;;
33162;SDS011;29282;45.656;11.302;2023-03-01T05:18:57;7.28;;;4.53;;
33162;SDS011;29282;45.656;11.302;2023-03-01T05:21:23;5.35;;;4.03;;
33162;SDS011;29282;45.656;11.302;2023-03-01T05:23:48;5.45;;;4.07;;
33162;SDS011;29282;45.656;11.302;2023-03-01T05:26:15;6.13;;;4.03;;
33162;SDS011;29282;45.656;11.302;2023-03-01T05:28:43;8.95;;;4.28;;
33162;SDS011;29282;45.656;11.302;2023-03-01T05:31:09;19.13;;;6.35;;
33162;SDS011;29282;45.656;11.302;2023-03-01T05:33:35;16.77;;;6.50;;
33162;SDS011;29282;45.656;11.302;2023-03-01T05:36:03;23.48;;;6.30;;
33162;SDS011;29282;45.656;11.302;2023-03-01T05:38:28;14.13;;;5.45;;
33162;SDS011;29282;45.656;11.302;2023-03-01T05:40:54;11.63;;;5.18;;
33162;SDS011;29282;45.656;11.302;2023-03-01T05:43:20;9.13;;;5.60;;
33162;SDS011;29282;45.656;11.302;2023-03-01T05:45:45;11.20;;;5.35;;
33162;SDS011;29282;45.656;11.302;2023-03-01T05:48:11;13.32;;;5.47;;
33162;SDS011;29282;45.656;11.302;2023-03-01T05:50:38;11.23;;;4.90;;
33162;SDS011;29282;45.656;11.302;2023-03-01T05:53:08;8.88;;;5.00;;
33162;SDS011;29282;45.656;11.302;2023-03-01T05:55:35;12.07;;;5.20;;
33162;SDS011;29282;45.656;11.302;2023-03-01T05:58:02;9.20;;;5.45;;
33162;SDS011;29282;45.656;11.302;2023-03-01T06:00:31;9.02;;;5.05;;
33162;SDS011;29282;45.656;11.302;2023-03-01T06:02:57;9.43;;;5.00;;
33162;SDS011;29282;45.656;11.302;2023-03-01T06:05:24;8.48;;;5.05;;
33162;SDS011;29282;45.656;11.302;2023-03-01T06:07:50;11.63;;;5.55;;
33162;SDS011;29282;45.656;11.302;2023-03-01T06:10:17;10.65;;;4.85;;
33162;SDS011;29282;45.656;11.302;2023-03-01T06:12:43;13.27;;;4.72;;
33162;SDS011;29282;45.656;11.302;2023-03-01T06:15:10;11.23;;;4.80;;
33162;SDS011;29282;45.656;11.302;2023-03-01T06:17:37;8.88;;;4.85;;
33162;SDS011;29282;45.656;11.302;2023-03-01T06:20:06;13.48;;;5.38;;
33162;SDS011;29282;45.656;11.302;2023-03-01T06:22:33;10.70;;;5.30;;
33162;SDS011;29282;45.656;11.302;2023-03-01T06:24:58;6.85;;;4.25;;
33162;SDS011;29282;45.656;11.302;2023-03-01T06:27:24;8.70;;;4.88;;
33162;SDS011;29282;45.656;11.302;2023-03-01T06:29:49;9.73;;;4.72;;
33162;SDS011;29282;45.656;11.302;2023-03-01T06:32:15;8.20;;;4.88;;
33162;SDS011;29282;45.656;11.302;2023-03-01T06:34:40;6.85;;;4.55;;
33162;SDS011;29282;45.656;11.302;2023-03-01T06:37:06;7.85;;;5.30;;
33162;SDS011;29282;45.656;11.302;2023-03-01T06:39:32;7.53;;;4.53;;
33162;SDS011;29282;45.656;11.302;2023-03-01T06:41:58;9.00;;;5.50;;
33162;SDS011;29282;45.656;11.302;2023-03-01T06:44:24;6.28;;;4.95;;
33162;SDS011;29282;45.656;11.302;2023-03-01T06:46:49;8.27;;;4.60;;
33162;SDS011;29282;45.656;11.302;2023-03-01T06:49:15;8.35;;;4.60;;
33162;SDS011;29282;45.656;11.302;2023-03-01T06:51:42;8.35;;;4.72;;
33162;SDS011;29282;45.656;11.302;2023-03-01T06:54:08;7.20;;;4.75;;
33162;SDS011;29282;45.656;11.302;2023-03-01T06:56:34;6.75;;;4.85;;
33162;SDS011;29282;45.656;11.302;2023-03-01T06:59:00;7.90;;;5.20;;
33162;SDS011;29282;45.656;11.302;2023-03-01T07:01:25;8.13;;;4.88;;
33162;SDS011;29282;45.656;11.302;2023-03-01T07:03:51;8.98;;;5.13;;
33162;SDS011;29282;45.656;11.302;2023-03-01T07:06:17;12.73;;;5.13;;
33162;SDS011;29282;45.656;11.302;2023-03-01T07:08:42;7.03;;;4.70;;
33162;SDS011;29282;45.656;11.302;2023-03-01T07:11:08;9.52;;;5.20;;
33162;SDS011;29282;45.656;11.302;2023-03-01T07:13:34;13.85;;;5.50;;
33162;SDS011;29282;45.656;11.302;2023-03-01T07:16:00;6.43;;;4.80;;
33162;SDS011;29282;45.656;11.302;2023-03-01T07:18:26;7.82;;;4.95;;
33162;SDS011;29282;45.656;11.302;2023-03-01T07:20:51;8.95;;;5.00;;
33162;SDS011;29282;45.656;11.302;2023-03-01T07:23:17;10.65;;;5.05;;
33162;SDS011;29282;45.656;11.302;2023-03-01T07:25:42;7.68;;;4.88;;
33162;SDS011;29282;45.656;11.302;2023-03-01T07:28:08;9.30;;;5.05;;
33162;SDS011;29282;45.656;11.302;2023-03-01T07:30:33;7.95;;;5.10;;
33162;SDS011;29282;45.656;11.302;2023-03-01T07:32:59;8.85;;;5.38;;
33162;SDS011;29282;45.656;11.302;2023-03-01T07:35:25;8.88;;;5.28;;
33162;SDS011;29282;45.656;11.302;2023-03-01T07:37:52;12.43;;;5.30;;
33162;SDS011;29282;45.656;11.302;2023-03-01T07:40:18;18.45;;;5.90;;
33162;SDS011;29282;45.656;11.302;2023-03-01T07:42:43;11.10;;;5.85;;
33162;SDS011;29282;45.656;11.302;2023-03-01T07:45:09;12.48;;;5.60;;
33162;SDS011;29282;45.656;11.302;2023-03-01T07:47:35;8.32;;;5.72;;
33162;SDS011;29282;45.656;11.302;2023-03-01T07:50:01;10.10;;;5.28;;
33162;SDS011;29282;45.656;11.302;2023-03-01T07:52:27;10.15;;;5.63;;
33162;SDS011;29282;45.656;11.302;2023-03-01T07:54:53;12.32;;;5.60;;
33162;SDS011;29282;45.656;11.302;2023-03-01T07:57:18;11.60;;;5.47;;
33162;SDS011;29282;45.656;11.302;2023-03-01T07:59:44;8.18;;;5.43;;
33162;SDS011;29282;45.656;11.302;2023-03-01T08:02:10;9.13;;;5.25;;
33162;SDS011;29282;45.656;11.302;2023-03-01T08:04:36;11.95;;;5.70;;
33162;SDS011;29282;45.656;11.302;2023-03-01T08:07:04;13.18;;;6.38;;
33162;SDS011;29282;45.656;11.302;2023-03-01T08:09:30;11.68;;;5.53;;
33162;SDS011;29282;45.656;11.302;2023-03-01T08:11:56;12.52;;;5.53;;
33162;SDS011;29282;45.656;11.302;2023-03-01T08:14:24;8.68;;;5.05;;
33162;SDS011;29282;45.656;11.302;2023-03-01T08:16:50;9.32;;;5.10;;
33162;SDS011;29282;45.656;11.302;2023-03-01T08:19:16;8.30;;;5.45;;
33162;SDS011;29282;45.656;11.302;2023-03-01T08:21:41;8.60;;;5.63;;
33162;SDS011;29282;45.656;11.302;2023-03-01T08:24:07;10.85;;;5.10;;
33162;SDS011;29282;45.656;11.302;2023-03-01T08:26:35;8.15;;;5.95;;
33162;SDS011;29282;45.656;11.302;2023-03-01T08:29:01;8.38;;;5.63;;
33162;SDS011;29282;45.656;11.302;2023-03-01T08:34:01;10.73;;;5.18;;
33162;SDS011;29282;45.656;11.302;2023-03-01T08:36:29;8.25;;;5.28;;
33162;SDS011;29282;45.656;11.302;2023-03-01T08:38:56;9.10;;;5.13;;
33162;SDS011;29282;45.656;11.302;2023-03-01T08:41:22;6.55;;;5.00;;
33162;SDS011;29282;45.656;11.302;2023-03-01T08:43:48;7.90;;;5.30;;
33162;SDS011;29282;45.656;11.302;2023-03-01T08:46:14;8.05;;;5.32;;
33162;SDS011;29282;45.656;11.302;2023-03-01T08:48:39;5.72;;;4.80;;
33162;SDS011;29282;45.656;11.302;2023-03-01T08:51:11;6.50;;;5.20;;
33162;SDS011;29282;45.656;11.302;2023-03-01T08:53:41;8.52;;;5.05;;
33162;SDS011;29282;45.656;11.302;2023-03-01T08:56:07;7.35;;;5.65;;
33162;SDS011;29282;45.656;11.302;2023-03-01T08:58:33;9.20;;;5.43;;
33162;SDS011;29282;45.656;11.302;2023-03-01T09:00:59;7.75;;;5.10;;
33162;SDS011;29282;45.656;11.302;2023-03-01T09:03:25;8.00;;;4.90;;
33162;SDS011;29282;45.656;11.302;2023-03-01T09:05:51;12.23;;;5.38;;
33162;SDS011;29282;45.656;11.302;2023-03-01T09:08:18;10.82;;;5.20;;
33162;SDS011;29282;45.656;11.302;2023-03-01T09:10:44;9.90;;;5.38;;
33162;SDS011;29282;45.656;11.302;2023-03-01T09:13:09;7.40;;;4.80;;
33162;SDS011;29282;45.656;11.302;2023-03-01T09:15:38;6.20;;;4.68;;
33162;SDS011;29282;45.656;11.302;2023-03-01T09:18:04;6.90;;;4.82;;
33162;SDS011;29282;45.656;11.302;2023-03-01T09:20:30;7.63;;;5.03;;
33162;SDS011;29282;45.656;11.302;2023-03-01T09:22:57;9.88;;;5.43;;
33162;SDS011;29282;45.656;11.302;2023-03-01T09:25:22;7.45;;;5.00;;
33162;SDS011;29282;45.656;11.302;2023-03-01T09:27:52;8.70;;;4.55;;
33162;SDS011;29282;45.656;11.302;2023-03-01T09:30:18;7.10;;;5.10;;
33162;SDS011;29282;45.656;11.302;2023-03-01T09:32:44;4.93;;;4.43;;
33162;SDS011;29282;45.656;11.302;2023-03-01T09:35:10;9.80;;;5.32;;
33162;SDS011;29282;45.656;11.302;2023-03-01T09:37:36;9.40;;;5.13;;
33162;SDS011;29282;45.656;11.302;2023-03-01T09:40:03;5.53;;;4.55;;
33162;SDS011;29282;45.656;11.302;2023-03-01T09:42:34;8.85;;;5.18;;
33162;SDS011;29282;45.656;11.302;2023-03-01T09:45:03;5.90;;;4.55;;
33162;SDS011;29282;45.656;11.302;2023-03-01T09:47:31;7.40;;;4.90;;
33162;SDS011;29282;45.656;11.302;2023-03-01T09:50:12;8.55;;;4.97;;
33162;SDS011;29282;45.656;11.302;2023-03-01T09:55:32;9.48;;;5.10;;
33162;SDS011;29282;45.656;11.302;2023-03-01T10:04:00;7.22;;;5.03;;
33162;SDS011;29282;45.656;11.302;2023-03-01T10:06:31;7.68;;;5.05;;
33162;SDS011;29282;45.656;11.302;2023-03-01T10:09:18;8.63;;;5.00;;
33162;SDS011;29282;45.656;11.302;2023-03-01T10:11:44;8.75;;;4.75;;
33162;SDS011;29282;45.656;11.302;2023-03-01T10:14:27;6.22;;;4.72;;
33162;SDS011;29282;45.656;11.302;2023-03-01T10:17:02;7.60;;;4.65;;
33162;SDS011;29282;45.656;11.302;2023-03-01T10:19:43;6.57;;;4.72;;
33162;SDS011;29282;45.656;11.302;2023-03-01T10:22:24;8.18;;;5.00;;
33162;SDS011;29282;45.656;11.302;2023-03-01T10:24:59;6.85;;;4.65;;
33162;SDS011;29282;45.656;11.302;2023-03-01T10:27:34;6.13;;;4.30;;
33162;SDS011;29282;45.656;11.302;2023-03-01T10:30:13;7.90;;;5.25;;
33162;SDS011;29282;45.656;11.302;2023-03-01T10:32:45;6.95;;;5.00;;
33162;SDS011;29282;45.656;11.302;2023-03-01T10:38:08;6.80;;;4.90;;
33162;SDS011;29282;45.656;11.302;2023-03-01T10:40:36;7.82;;;4.60;;
33162;SDS011;29282;45.656;11.302;2023-03-01T10:43:15;7.70;;;4.88;;
33162;SDS011;29282;45.656;11.302;2023-03-01T10:45:41;9.60;;;4.63;;
33162;SDS011;29282;45.656;11.302;2023-03-01T10:48:20;5.80;;;5.00;;
33162;SDS011;29282;45.656;11.302;2023-03-01T10:53:29;7.65;;;5.03;;
33162;SDS011;29282;45.656;11.302;2023-03-01T10:58:56;6.65;;;4.45;;
33162;SDS011;29282;45.656;11.302;2023-03-01T11:01:27;7.18;;;4.55;;
33162;SDS011;29282;45.656;11.302;2023-03-01T11:06:36;6.35;;;4.10;;
33162;SDS011;29282;45.656;11.302;2023-03-01T11:09:20;6.57;;;4.95;;
33162;SDS011;29282;45.656;11.302;2023-03-01T11:11:56;6.75;;;4.63;;
33162;SDS011;29282;45.656;11.302;2023-03-01T11:14:25;8.55;;;4.70;;
33162;SDS011;29282;45.656;11.302;2023-03-01T11:17:03;6.78;;;4.50;;
33162;SDS011;29282;45.656;11.302;2023-03-01T11:19:31;6.55;;;4.57;;
33162;SDS011;29282;45.656;11.302;2023-03-01T11:22:13;8.48;;;4.90;;
33162;SDS011;29282;45.656;11.302;2023-03-01T11:24:49;7.70;;;4.63;;
33162;SDS011;29282;45.656;11.302;2023-03-01T11:30:01;8.55;;;4.57;;
33162;SDS011;29282;45.656;11.302;2023-03-01T11:32:50;6.88;;;4.32;;
33162;SDS011;29282;45.656;11.302;2023-03-01T11:35:29;4.82;;;4.32;;
33162;SDS011;29282;45.656;11.302;2023-03-01T11:43:48;8.68;;;4.57;;
33162;SDS011;29282;45.656;11.302;2023-03-01T12:10:52;6.57;;;4.30;;
33162;SDS011;29282;45.656;11.302;2023-03-01T12:19:58;6.88;;;4.75;;
33162;SDS011;29282;45.656;11.302;2023-03-01T12:25:21;6.20;;;4.28;;
33162;SDS011;29282;45.656;11.302;2023-03-01T12:36:21;8.75;;;4.95;;
33162;SDS011;29282;45.656;11.302;2023-03-01T12:39:23;8.98;;;5.20;;
33162;SDS011;29282;45.656;11.302;2023-03-01T12:50:58;12.40;;;5.82;;
33162;SDS011;29282;45.656;11.302;2023-03-01T12:53:39;9.00;;;5.00;;
33162;SDS011;29282;45.656;11.302;2023-03-01T12:56:12;7.90;;;5.10;;
33162;SDS011;29282;45.656;11.302;2023-03-01T13:07:21;12.40;;;4.72;;
33162;SDS011;29282;45.656;11.302;2023-03-01T13:17:54;8.13;;;4.95;;
33162;SDS011;29282;45.656;11.302;2023-03-01T13:33:41;7.10;;;4.53;;
33162;SDS011;29282;45.656;11.302;2023-03-01T13:36:08;7.88;;;4.55;;
33162;SDS011;29282;45.656;11.302;2023-03-01T13:41:11;11.50;;;4.22;;
33162;SDS011;29282;45.656;11.302;2023-03-01T13:43:40;7.55;;;4.15;;
33162;SDS011;29282;45.656;11.302;2023-03-01T13:46:11;8.68;;;4.80;;
33162;SDS011;29282;45.656;11.302;2023-03-01T13:48:43;8.27;;;4.38;;
33162;SDS011;29282;45.656;11.302;2023-03-01T13:51:11;6.93;;;4.25;;
33162;SDS011;29282;45.656;11.302;2023-03-01T13:53:41;10.30;;;4.57;;
33162;SDS011;29282;45.656;11.302;2023-03-01T13:56:17;8.80;;;4.30;;
33162;SDS011;29282;45.656;11.302;2023-03-01T13:58:51;10.65;;;4.38;;
33162;SDS011;29282;45.656;11.302;2023-03-01T14:01:26;5.90;;;4.03;;
33162;SDS011;29282;45.656;11.302;2023-03-01T14:04:35;6.88;;;4.28;;
33162;SDS011;29282;45.656;11.302;2023-03-01T14:07:22;8.45;;;3.95;;
33162;SDS011;29282;45.656;11.302;2023-03-01T14:09:54;8.15;;;4.10;;
33162;SDS011;29282;45.656;11.302;2023-03-01T14:15:17;9.80;;;4.68;;
33162;SDS011;29282;45.656;11.302;2023-03-01T14:20:32;6.30;;;4.40;;
33162;SDS011;29282;45.656;11.302;2023-03-01T14:23:08;12.02;;;4.28;;
33162;SDS011;29282;45.656;11.302;2023-03-01T14:25:38;9.37;;;4.43;;
33162;SDS011;29282;45.656;11.302;2023-03-01T14:28:21;4.60;;;3.65;;
33162;SDS011;29282;45.656;11.302;2023-03-01T14:30:52;11.82;;;4.72;;
33162;SDS011;29282;45.656;11.302;2023-03-01T14:33:23;5.68;;;3.60;;
33162;SDS011;29282;45.656;11.302;2023-03-01T14:38:29;11.73;;;5.18;;
33162;SDS011;29282;45.656;11.302;2023-03-01T14:43:38;9.45;;;4.05;;
33162;SDS011;29282;45.656;11.302;2023-03-01T14:46:06;7.65;;;4.18;;
33162;SDS011;29282;45.656;11.302;2023-03-01T14:48:53;8.18;;;4.00;;
33162;SDS011;29282;45.656;11.302;2023-03-01T14:51:23;7.32;;;4.50;;
33162;SDS011;29282;45.656;11.302;2023-03-01T14:53:48;6.60;;;4.45;;
33162;SDS011;29282;45.656;11.302;2023-03-01T14:56:15;7.45;;;4.32;;
33162;SDS011;29282;45.656;11.302;2023-03-01T14:58:42;7.85;;;4.45;;
33162;SDS011;29282;45.656;11.302;2023-03-01T15:01:13;6.30;;;4.13;;
33162;SDS011;29282;45.656;11.302;2023-03-01T15:03:42;5.07;;;3.90;;
33162;SDS011;29282;45.656;11.302;2023-03-01T15:06:11;7.47;;;3.85;;
33162;SDS011;29282;45.656;11.302;2023-03-01T15:08:41;6.53;;;3.95;;
33162;SDS011;29282;45.656;11.302;2023-03-01T15:13:57;10.77;;;4.25;;
33162;SDS011;29282;45.656;11.302;2023-03-01T15:18:57;8.48;;;3.92;;
33162;SDS011;29282;45.656;11.302;2023-03-01T15:23:54;7.45;;;3.90;;
33162;SDS011;29282;45.656;11.302;2023-03-01T15:26:23;6.93;;;4.00;;
33162;SDS011;29282;45.656;11.302;2023-03-01T15:28:51;8.68;;;4.55;;
33162;SDS011;29282;45.656;11.302;2023-03-01T15:31:32;6.20;;;4.13;;
33162;SDS011;29282;45.656;11.302;2023-03-01T15:36:54;7.15;;;3.80;;
33162;SDS011;29282;45.656;11.302;2023-03-01T15:39:41;7.63;;;4.60;;
33162;SDS011;29282;45.656;11.302;2023-03-01T15:45:08;7.70;;;4.30;;
33162;SDS011;29282;45.656;11.302;2023-03-01T15:47:33;6.53;;;4.20;;
33162;SDS011;29282;45.656;11.302;2023-03-01T15:50:01;9.43;;;4.00;;
33162;SDS011;29282;45.656;11.302;2023-03-01T15:52:34;7.50;;;4.22;;
33162;SDS011;29282;45.656;11.302;2023-03-01T15:55:06;8.05;;;4.18;;
33162;SDS011;29282;45.656;11.302;2023-03-01T15:57:40;5.70;;;3.92;;
33162;SDS011;29282;45.656;11.302;2023-03-01T16:00:05;5.47;;;4.07;;
33162;SDS011;29282;45.656;11.302;2023-03-01T16:02:38;7.35;;;4.10;;
33162;SDS011;29282;45.656;11.302;2023-03-01T16:05:05;5.10;;;4.28;;
33162;SDS011;29282;45.656;11.302;2023-03-01T16:07:39;7.63;;;3.90;;
33162;SDS011;29282;45.656;11.302;2023-03-01T16:10:04;6.63;;;4.10;;
33162;SDS011;29282;45.656;11.302;2023-03-01T16:12:30;6.72;;;3.88;;
33162;SDS011;29282;45.656;11.302;2023-03-01T16:14:56;7.20;;;4.20;;
33162;SDS011;29282;45.656;11.302;2023-03-01T16:17:22;9.88;;;4.40;;
33162;SDS011;29282;45.656;11.302;2023-03-01T16:19:48;7.63;;;4.07;;
33162;SDS011;29282;45.656;11.302;2023-03-01T16:22:13;5.00;;;4.10;;
33162;SDS011;29282;45.656;11.302;2023-03-01T16:24:39;7.13;;;3.70;;
33162;SDS011;29282;45.656;11.302;2023-03-01T16:27:06;6.93;;;3.97;;
33162;SDS011;29282;45.656;11.302;2023-03-01T16:29:32;8.20;;;3.90;;
33162;SDS011;29282;45.656;11.302;2023-03-01T16:31:59;5.05;;;3.60;;
33162;SDS011;29282;45.656;11.302;2023-03-01T16:34:26;6.78;;;4.22;;
33162;SDS011;29282;45.656;11.302;2023-03-01T16:36:51;4.95;;;3.90;;
33162;SDS011;29282;45.656;11.302;2023-03-01T16:39:17;4.78;;;4.10;;
33162;SDS011;29282;45.656;11.302;2023-03-01T16:41:42;5.28;;;3.70;;
33162;SDS011;29282;45.656;11.302;2023-03-01T16:44:08;6.72;;;3.92;;
33162;SDS011;29282;45.656;11.302;2023-03-01T16:46:33;7.63;;;3.95;;
33162;SDS011;29282;45.656;11.302;2023-03-01T16:48:59;7.03;;;4.40;;
33162;SDS011;29282;45.656;11.302;2023-03-01T16:51:24;6.60;;;3.70;;
33162;SDS011;29282;45.656;11.302;2023-03-01T16:53:50;6.63;;;4.03;;
33162;SDS011;29282;45.656;11.302;2023-03-01T16:56:17;9.10;;;3.97;;
33162;SDS011;29282;45.656;11.302;2023-03-01T16:58:43;9.55;;;4.13;;
33162;SDS011;29282;45.656;11.302;2023-03-01T17:03:35;5.10;;;3.50;;
33162;SDS011;29282;45.656;11.302;2023-03-01T17:06:05;6.20;;;4.05;;
33162;SDS011;29282;45.656;11.302;2023-03-01T17:08:33;5.50;;;3.70;;
33162;SDS011;29282;45.656;11.302;2023-03-01T17:11:32;5.60;;;3.88;;
33162;SDS011;29282;45.656;11.302;2023-03-01T17:13:50;5.45;;;3.55;;
33162;SDS011;29282;45.656;11.302;2023-03-01T17:16:17;6.13;;;3.78;;
33162;SDS011;29282;45.656;11.302;2023-03-01T17:18:44;5.15;;;3.58;;
33162;SDS011;29282;45.656;11.302;2023-03-01T17:21:10;4.63;;;3.40;;